Time;durP1;ratioP1;P1;durP2;ratioP2;P2;SDS_P1;SDS_P2;PMS_P1;PMS_P2;Temp;Humidity;BMP_temperature;BMP_pressure;BME280_temperature;BME280_humidity;BME280_pressure;Samples;Min_cycle;Max_cycle;Signal;HPM_P1;HPM_P2
2024/04/03 00:00:11;;;;;;;0.23;0.23;;;;;;;10.58;70.39;98578.42;1730779;83;21583;-77
2024/04/03 00:02:40;;;;;;;0.30;0.28;;;;;;;10.60;70.33;98576.81;1730754;83;21018;-75
2024/04/03 00:05:08;;;;;;;0.37;0.25;;;;;;;10.60;70.19;98577.64;1730623;82;21109;-76
2024/04/03 00:07:37;;;;;;;0.47;0.30;;;;;;;10.59;69.93;98583.36;1730434;82;21154;-78
2024/04/03 00:10:05;;;;;;;0.20;0.20;;;;;;;10.56;70.05;98586.05;1730733;83;21006;-76
2024/04/03 00:12:35;;;;;;;0.25;0.20;;;;;;;10.54;69.73;98592.84;1730671;83;21081;-76
2024/04/03 00:15:04;;;;;;;1.55;0.30;;;;;;;10.48;69.41;98591.36;1730730;83;21070;-76
2024/04/03 00:17:32;;;;;;;0.20;0.20;;;;;;;10.41;69.63;98602.16;1730583;83;21037;-76
2024/04/03 00:20:01;;;;;;;0.33;0.20;;;;;;;10.36;69.97;98588.32;1730563;82;21086;-76
2024/04/03 00:22:29;;;;;;;0.23;0.20;;;;;;;10.36;70.10;98579.57;1730541;82;21082;-76
2024/04/03 00:24:58;;;;;;;0.20;0.17;;;;;;;10.35;69.88;98583.37;1697897;84;21038;-76
2024/04/03 00:27:26;;;;;;;0.85;0.30;;;;;;;10.33;70.01;98577.31;1727436;83;21081;-77
2024/04/03 00:29:54;;;;;;;0.57;0.28;;;;;;;10.36;69.92;98585.05;1706168;84;21101;-77
2024/04/03 00:32:22;;;;;;;0.20;0.20;;;;;;;10.36;69.84;98590.52;1705998;84;21033;-77
2024/04/03 00:34:53;;;;;;;0.20;0.20;;;;;;;10.38;69.74;98597.13;1706135;84;21072;-77
2024/04/03 00:37:22;;;;;;;0.40;0.30;;;;;;;10.35;69.84;98590.77;1705999;84;21460;-78
2024/04/03 00:39:53;;;;;;;0.30;0.25;;;;;;;10.36;70.00;98609.69;1706234;84;21069;-77
2024/04/03 00:42:24;;;;;;;0.95;0.35;;;;;;;10.34;70.34;98602.78;1706137;84;21643;-76
2024/04/03 00:44:52;;;;;;;0.40;0.20;;;;;;;10.30;70.54;98613.37;1706125;84;21477;-76
2024/04/03 00:47:21;;;;;;;0.72;0.30;;;;;;;10.31;70.69;98618.31;1706067;83;21319;-79
2024/04/03 00:49:49;;;;;;;0.60;0.30;;;;;;;10.27;70.80;98611.13;1706066;84;21697;-77
2024/04/03 00:52:18;;;;;;;0.30;0.30;;;;;;;10.27;71.02;98608.39;1706099;83;21025;-77
2024/04/03 00:54:46;;;;;;;2.37;0.30;;;;;;;10.28;71.16;98627.84;1706113;84;21041;-76
2024/04/03 00:57:14;;;;;;;0.65;0.47;;;;;;;10.29;71.07;98624.03;1706019;84;21009;-77
2024/04/03 00:59:43;;;;;;;0.57;0.25;;;;;;;10.29;71.02;98626.77;1705928;84;21063;-75
2024/04/03 01:02:11;;;;;;;2.42;0.40;;;;;;;10.28;71.14;98618.27;1706064;84;21088;-75
2024/04/03 01:04:39;;;;;;;0.40;0.25;;;;;;;10.29;71.10;98626.77;1706243;84;21069;-77
2024/04/03 01:07:08;;;;;;;0.47;0.33;;;;;;;10.29;71.11;98623.20;1706306;84;21061;-76
2024/04/03 01:09:36;;;;;;;0.42;0.40;;;;;;;10.30;71.26;98631.71;1705814;84;21477;-77
2024/04/03 01:12:06;;;;;;;0.57;0.40;;;;;;;10.31;71.40;98640.22;1706019;84;21031;-76
2024/04/03 01:14:34;;;;;;;0.40;0.40;;;;;;;10.30;71.51;98643.48;1706012;83;21053;-76
2024/04/03 01:17:03;;;;;;;1.35;0.45;;;;;;;10.31;71.69;98655.27;1706114;84;21025;-76
2024/04/03 01:19:31;;;;;;;2.02;0.45;;;;;;;10.31;71.82;98652.00;1706160;84;21088;-75
2024/04/03 01:21:59;;;;;;;2.15;0.50;;;;;;;10.32;71.99;98653.66;1706027;84;21025;-76
2024/04/03 01:24:28;;;;;;;0.50;0.40;;;;;;;10.33;71.97;98663.55;1705989;84;21070;-77
2024/04/03 01:26:56;;;;;;;1.00;0.60;;;;;;;10.33;72.02;98669.02;1706000;84;21036;-77
2024/04/03 01:29:24;;;;;;;1.20;1.10;;;;;;;10.32;71.89;98674.73;1722274;83;21070;-76
2024/04/03 01:31:52;;;;;;;1.52;0.80;;;;;;;10.30;72.03;98684.55;1726340;83;21038;-77
2024/04/03 01:34:21;;;;;;;1.20;0.70;;;;;;;10.29;72.19;98680.14;1726600;83;21097;-78
2024/04/03 01:36:49;;;;;;;0.62;0.62;;;;;;;10.30;72.32;98681.81;1726554;83;21062;-78
2024/04/03 01:39:18;;;;;;;5.70;2.60;;;;;;;10.31;72.53;98689.48;1726381;83;21042;-77
2024/04/03 01:41:46;;;;;;;2.50;2.30;;;;;;;10.33;72.61;98688.72;1726399;83;21070;-76
2024/04/03 01:44:14;;;;;;;2.37;1.87;;;;;;;10.33;72.61;98697.76;1726556;83;21070;-76
2024/04/03 01:46:42;;;;;;;1.65;1.02;;;;;;;10.34;72.61;98702.16;1726545;83;21078;-77
2024/04/03 01:49:11;;;;;;;1.90;1.52;;;;;;;10.34;72.71;98702.70;1726507;83;21086;-77
2024/04/03 01:51:39;;;;;;;0.88;0.70;;;;;;;10.33;72.88;98712.81;1726425;83;21018;-76
2024/04/03 01:54:09;;;;;;;2.50;1.00;;;;;;;10.34;72.95;98715.02;1726681;83;21042;-77
2024/04/03 01:56:37;;;;;;;1.52;1.25;;;;;;;10.34;72.86;98723.23;1726706;83;21059;-77
2024/04/03 01:59:05;;;;;;;1.70;1.50;;;;;;;10.34;72.81;98711.74;1726567;83;21427;-78
2024/04/03 02:01:33;;;;;;;0.88;0.75;;;;;;;10.39;72.81;98711.03;1726452;83;21058;-78
2024/04/03 02:04:01;;;;;;;0.70;0.70;;;;;;;10.37;72.42;98719.48;1726612;83;21077;-77
2024/04/03 02:06:30;;;;;;;1.22;1.12;;;;;;;10.35;72.17;98719.42;1726606;83;21077;-78
2024/04/03 02:08:58;;;;;;;1.87;1.20;;;;;;;10.35;72.13;98718.05;1726476;83;21019;-76
2024/04/03 02:11:27;;;;;;;0.95;0.80;;;;;;;10.35;72.10;98722.99;1726586;83;21034;-76
2024/04/03 02:13:55;;;;;;;0.70;0.60;;;;;;;10.39;71.74;98717.88;1726433;83;21550;-77
2024/04/03 02:16:25;;;;;;;1.12;0.88;;;;;;;10.36;71.34;98716.98;1726477;83;21090;-77
2024/04/03 02:18:53;;;;;;;0.88;0.70;;;;;;;10.36;71.19;98722.45;1726452;83;21033;-77
2024/04/03 02:21:21;;;;;;;1.55;0.70;;;;;;;10.32;71.19;98734.42;1726424;83;21560;-76
2024/04/03 02:23:50;;;;;;;1.52;0.82;;;;;;;10.33;71.17;98740.72;1726568;83;21086;-77
2024/04/03 02:26:18;;;;;;;0.75;0.72;;;;;;;10.33;71.01;98744.30;1726695;83;21070;-77
2024/04/03 02:28:46;;;;;;;1.15;0.55;;;;;;;10.33;70.80;98753.05;1717895;83;21053;-76
2024/04/03 02:31:15;;;;;;;0.88;0.70;;;;;;;10.30;70.72;98748.88;1694007;85;21069;-77
2024/04/03 02:33:45;;;;;;;1.15;0.90;;;;;;;10.27;70.84;98745.24;1664538;86;21063;-77
2024/04/03 02:36:13;;;;;;;1.30;0.60;;;;;;;10.27;70.91;98750.72;1694007;83;21061;-77
2024/04/03 02:38:41;;;;;;;1.02;0.90;;;;;;;10.25;70.89;98752.02;1664856;86;21094;-77
2024/04/03 02:41:10;;;;;;;2.72;1.00;;;;;;;10.23;71.01;98745.95;1693960;85;21006;-77
2024/04/03 02:43:38;;;;;;;1.77;1.20;;;;;;;10.20;71.03;98752.73;1664612;86;21097;-76
2024/04/03 02:46:07;;;;;;;1.10;1.00;;;;;;;10.18;71.11;98755.67;1694043;85;21054;-77
2024/04/03 02:48:35;;;;;;;1.87;1.10;;;;;;;10.17;71.22;98760.01;1664677;86;21054;-76
2024/04/03 02:51:09;;;;;;;1.12;1.02;;;;;;;10.17;71.25;98765.48;1694029;85;21011;-77
2024/04/03 02:53:38;;;;;;;1.50;1.00;;;;;;;10.16;71.23;98778.33;1664549;86;21097;-75
2024/04/03 02:56:08;;;;;;;1.65;1.00;;;;;;;10.12;71.39;98773.56;1693909;85;21046;-76
2024/04/03 02:58:36;;;;;;;4.55;2.10;;;;;;;10.13;71.55;98779.34;1664744;86;21039;-76
2024/04/03 03:01:08;;;;;;;2.65;1.95;;;;;;;10.10;71.55;98783.91;1693929;85;21002;-76
2024/04/03 03:03:37;;;;;;;4.67;2.30;;;;;;;10.13;71.66;98787.55;1664836;86;21055;-76
2024/04/03 03:06:06;;;;;;;2.12;1.27;;;;;;;10.09;71.78;98784.44;1694024;85;21742;-77
2024/04/03 03:08:35;;;;;;;1.30;1.20;;;;;;;10.04;71.93;98781.58;1664639;86;21034;-77
2024/04/03 03:11:04;;;;;;;2.10;1.85;;;;;;;10.03;72.09;98789.48;1694141;85;21034;-76
2024/04/03 03:13:32;;;;;;;2.12;1.90;;;;;;;10.01;72.15;98789.42;1664531;86;21046;-77
2024/04/03 03:16:01;;;;;;;3.45;1.60;;;;;;;9.98;72.11;98785.25;1693930;83;21428;-76
2024/04/03 03:18:33;;;;;;;2.40;1.20;;;;;;;9.97;72.27;98795.89;1664915;86;21090;-77
2024/04/03 03:21:01;;;;;;;1.42;0.90;;;;;;;9.98;72.43;98792.62;1693965;85;21101;-77
2024/04/03 03:23:29;;;;;;;2.77;1.10;;;;;;;10.01;72.32;98793.52;1664650;86;21054;-77
2024/04/03 03:25:58;;;;;;;2.20;2.00;;;;;;;10.00;72.31;98783.64;1693927;85;21089;-75
2024/04/03 03:28:26;;;;;;;1.20;1.07;;;;;;;10.01;72.34;98790.25;1668166;83;21046;-77
2024/04/03 03:30:58;;;;;;;1.20;0.70;;;;;;;10.01;72.35;98794.89;1730619;83;21042;-77
2024/04/03 03:33:26;;;;;;;2.40;1.00;;;;;;;10.01;72.46;98800.36;1730533;82;21070;-76
2024/04/03 03:35:56;;;;;;;3.37;0.90;;;;;;;10.01;72.45;98797.09;1730573;83;21067;-75
2024/04/03 03:38:24;;;;;;;1.32;1.02;;;;;;;10.00;72.38;98807.73;1730599;83;21516;-76
2024/04/03 03:40:52;;;;;;;2.15;1.20;;;;;;;9.99;72.46;98810.17;1730557;82;21030;-76
2024/04/03 03:43:21;;;;;;;1.22;0.90;;;;;;;10.00;72.60;98815.95;1730715;83;21624;-78
2024/04/03 03:45:51;;;;;;;2.35;1.10;;;;;;;10.00;72.52;98817.31;1730615;83;21006;-77
2024/04/03 03:52:36;;;;;;;2.12;0.98;;;;;;;9.99;72.58;98814.81;1730671;83;21066;-76
2024/04/03 03:53:39;;;;;;;2.03;1.20;;;;;;;9.95;72.93;98823.19;1730756;83;21087;-76
2024/04/03 03:56:08;;;;;;;1.67;1.00;;;;;;;9.90;73.14;98825.78;1699989;83;21062;-77
2024/04/03 03:58:36;;;;;;;1.72;1.00;;;;;;;9.87;73.41;98827.61;1730772;82;21042;-75
2024/04/03 04:01:05;;;;;;;2.02;1.27;;;;;;;9.83;73.61;98834.08;1730561;83;21078;-78
2024/04/03 04:03:33;;;;;;;2.72;1.32;;;;;;;9.84;73.89;98835.75;1730595;82;21051;-75
2024/04/03 04:06:02;;;;;;;1.90;1.20;;;;;;;9.84;74.02;98837.95;1730665;82;21074;-76
2024/04/03 04:08:30;;;;;;;5.08;1.35;;;;;;;9.85;74.24;98843.72;1730701;83;21050;-78
2024/04/03 04:11:00;;;;;;;1.67;1.30;;;;;;;9.84;74.43;98845.32;1730678;82;21085;-77
2024/04/03 04:13:28;;;;;;;1.40;1.20;;;;;;;9.85;74.65;98851.09;1730631;82;21087;-76
2024/04/03 04:16:00;;;;;;;3.22;1.60;;;;;;;9.87;74.78;98848.96;1730559;83;21525;-75
2024/04/03 04:18:32;;;;;;;3.45;1.50;;;;;;;9.88;74.89;98852.53;1730950;83;21038;-76
2024/04/03 04:21:01;;;;;;;4.10;1.90;;;;;;;9.90;75.11;98847.66;1730739;83;21117;-75
2024/04/03 04:23:30;;;;;;;4.85;1.70;;;;;;;9.91;75.15;98853.44;1730362;83;21026;-77
2024/04/03 04:26:03;;;;;;;3.08;1.72;;;;;;;9.92;75.21;98855.94;1730558;82;21054;-77
2024/04/03 04:28:34;;;;;;;5.30;2.00;;;;;;;9.93;75.37;98848.03;1730651;83;21049;-76
2024/04/03 04:31:04;;;;;;;2.92;1.67;;;;;;;9.96;75.45;98843.47;1706603;83;21097;-75
2024/04/03 04:33:37;;;;;;;3.75;1.95;;;;;;;9.99;75.41;98859.95;1705979;84;21041;-76
2024/04/03 04:36:07;;;;;;;3.27;1.62;;;;;;;10.00;75.57;98857.52;1706118;84;21044;-77
2024/04/03 04:38:35;;;;;;;5.30;1.80;;;;;;;10.01;75.70;98849.61;1706169;84;20986;-76
2024/04/03 04:41:04;;;;;;;3.42;1.75;;;;;;;10.02;75.80;98859.48;1705902;84;21080;-76
2024/04/03 04:43:32;;;;;;;2.87;1.80;;;;;;;10.05;75.87;98863.13;1705809;84;21472;-77
2024/04/03 04:46:03;;;;;;;2.70;2.17;;;;;;;10.09;75.91;98857.49;1705275;84;21540;-78
2024/04/03 04:48:32;;;;;;;5.67;2.50;;;;;;;10.15;75.92;98856.56;1706067;84;21068;-77
2024/04/03 04:51:02;;;;;;;4.25;2.00;;;;;;;10.19;75.83;98865.98;1706005;84;21475;-76
2024/04/03 04:53:31;;;;;;;4.30;2.30;;;;;;;10.23;75.76;98865.01;1705797;84;21066;-77
2024/04/03 04:56:07;;;;;;;4.00;2.45;;;;;;;10.23;75.66;98867.22;1706015;83;21069;-77
2024/04/03 04:58:36;;;;;;;3.67;2.10;;;;;;;10.26;75.71;98877.70;1706133;84;21470;-78
2024/04/03 05:01:07;;;;;;;3.85;1.82;;;;;;;10.30;75.68;98883.00;1706013;83;21013;-77
2024/04/03 05:03:36;;;;;;;6.17;2.30;;;;;;;10.36;75.74;98887.55;1706091;83;21029;-77
2024/04/03 05:06:05;;;;;;;5.37;1.90;;;;;;;10.39;75.64;98877.50;1706070;84;21033;-77
2024/04/03 05:08:33;;;;;;;3.75;2.22;;;;;;;10.49;75.67;98886.54;1706239;84;21429;-77
2024/04/03 05:11:02;;;;;;;4.85;2.47;;;;;;;10.57;75.31;98882.09;1706192;84;21085;-77
2024/04/03 05:13:34;;;;;;;6.03;2.62;;;;;;;10.59;75.21;98883.23;1706022;84;21060;-77
2024/04/03 05:16:12;;;;;;;4.12;2.27;;;;;;;10.65;75.18;98886.39;1706290;84;21085;-75
2024/04/03 05:18:44;;;;;;;4.30;2.20;;;;;;;10.69;74.89;98882.12;1705976;84;21539;-77
2024/04/03 05:21:13;;;;;;;6.92;2.25;;;;;;;10.73;74.70;98906.06;1706254;84;21029;-75
2024/04/03 05:23:43;;;;;;;5.03;2.45;;;;;;;10.75;74.47;98892.97;1706020;84;21045;-77
2024/04/03 05:26:12;;;;;;;5.55;2.22;;;;;;;10.79;74.41;98902.38;1706328;84;21060;-77
2024/04/03 05:28:41;;;;;;;4.85;2.10;;;;;;;10.83;74.20;98915.07;1706209;84;21067;-78
2024/04/03 05:31:11;;;;;;;5.10;2.30;;;;;;;10.86;74.02;98915.14;1724106;83;21102;-77
2024/04/03 05:33:39;;;;;;;5.83;3.58;;;;;;;10.88;74.05;98913.00;1726535;83;21019;-79
2024/04/03 05:36:08;;;;;;;4.97;2.20;;;;;;;10.93;73.98;98924.92;1726652;83;21478;-76
2024/04/03 05:38:38;;;;;;;4.40;2.40;;;;;;;10.94;73.59;98922.47;1726730;83;21074;-75
2024/04/03 05:41:08;;;;;;;5.22;2.30;;;;;;;10.92;73.55;98918.30;1700417;83;21062;-77
2024/04/03 05:43:38;;;;;;;5.92;2.40;;;;;;;10.90;73.53;98922.65;1726089;83;21027;-78
2024/04/03 05:46:07;;;;;;;5.75;2.30;;;;;;;10.92;73.30;98925.98;1726889;83;21058;-78
2024/04/03 05:48:38;;;;;;;4.20;2.58;;;;;;;10.94;73.31;98923.84;1726458;83;21026;-78
2024/04/03 05:51:07;;;;;;;5.72;2.20;;;;;;;11.01;73.17;98917.72;1726670;83;21042;-77
2024/04/03 05:53:36;;;;;;;6.28;2.37;;;;;;;11.06;72.66;98938.42;1726403;83;21070;-77
2024/04/03 05:56:05;;;;;;;6.25;2.10;;;;;;;11.12;72.12;98935.27;1726390;83;21097;-78
2024/04/03 05:58:34;;;;;;;7.53;2.20;;;;;;;11.17;71.90;98944.99;1726652;83;21002;-77
2024/04/03 06:01:03;;;;;;;3.35;1.95;;;;;;;11.23;71.12;98951.44;1726639;83;21098;-77
2024/04/03 06:03:32;;;;;;;3.90;2.15;;;;;;;11.25;70.99;98957.52;1726335;83;21599;-79
2024/04/03 06:06:01;;;;;;;4.75;2.17;;;;;;;11.28;70.35;98958.41;1699241;83;21038;-77
2024/04/03 06:08:30;;;;;;;4.75;2.10;;;;;;;11.29;70.50;98966.40;1726499;83;21070;-77
2024/04/03 06:10:58;;;;;;;4.90;2.40;;;;;;;11.33;70.51;98951.67;1726563;83;21491;-78
2024/04/03 06:13:26;;;;;;;12.13;2.58;;;;;;;11.40;70.30;98955.13;1726374;83;21047;-77
2024/04/03 06:15:55;;;;;;;4.62;2.15;;;;;;;11.47;70.11;98959.96;1726370;83;21059;-76
2024/04/03 06:18:23;;;;;;;9.00;2.83;;;;;;;11.57;69.71;98973.08;1726453;83;21062;-77
2024/04/03 06:20:52;;;;;;;8.28;2.72;;;;;;;11.60;68.75;98966.58;1726473;83;21077;-77
2024/04/03 06:23:20;;;;;;;6.22;2.10;;;;;;;11.60;68.86;98965.73;1726290;83;21026;-76
2024/04/03 06:25:50;;;;;;;6.97;2.50;;;;;;;11.62;68.45;98978.14;1726381;83;21077;-77
2024/04/03 06:28:19;;;;;;;5.70;2.40;;;;;;;11.63;68.36;98975.70;1726466;83;21030;-77
2024/04/03 06:30:47;;;;;;;5.20;2.47;;;;;;;11.64;68.29;98973.78;1728860;83;21090;-78
2024/04/03 06:33:16;;;;;;;5.28;1.95;;;;;;;11.66;67.98;98971.10;1730440;83;21094;-77
2024/04/03 06:35:45;;;;;;;6.47;2.30;;;;;;;11.67;67.55;99007.06;1730493;82;21046;-78
2024/04/03 06:38:14;;;;;;;6.35;2.60;;;;;;;11.71;67.52;98983.59;1700039;83;21189;-76
2024/04/03 06:40:42;;;;;;;2.62;1.70;;;;;;;11.78;67.17;98970.32;1730348;82;21149;-77
2024/04/03 06:43:11;;;;;;;6.67;3.00;;;;;;;11.83;66.67;98978.66;1730699;83;20998;-77
2024/04/03 06:45:40;;;;;;;9.05;4.65;;;;;;;11.84;66.08;98977.05;1730512;82;21465;-78
2024/04/03 06:48:09;;;;;;;7.87;3.50;;;;;;;11.89;66.00;98988.68;1730565;83;21468;-77
2024/04/03 06:50:38;;;;;;;6.08;3.08;;;;;;;11.93;65.62;98980.26;1730536;83;21026;-78
2024/04/03 06:53:06;;;;;;;8.15;3.40;;;;;;;11.94;65.60;98973.70;1730677;82;21042;-78
2024/04/03 06:55:35;;;;;;;10.25;3.60;;;;;;;11.96;64.94;98994.34;1699859;83;21490;-79
2024/04/03 06:58:04;;;;;;;5.40;2.35;;;;;;;11.97;64.52;98971.84;1668361;84;21481;-76
2024/04/03 07:00:36;;;;;;;5.97;1.90;;;;;;;11.99;64.42;98981.50;1730433;83;21038;-77
2024/04/03 07:03:05;;;;;;;6.65;2.33;;;;;;;12.02;64.02;98982.92;1730775;83;21050;-78
2024/04/03 07:05:33;;;;;;;6.03;2.30;;;;;;;12.04;63.84;98980.23;1730568;83;21561;-78
2024/04/03 07:08:02;;;;;;;6.37;2.37;;;;;;;12.07;63.88;98970.69;1730885;83;21093;-76
2024/04/03 07:10:30;;;;;;;4.10;2.27;;;;;;;12.12;63.72;98974.08;1730590;82;21030;-77
2024/04/03 07:13:01;;;;;;;4.30;2.17;;;;;;;12.17;63.47;98971.44;1730468;82;21474;-77
2024/04/03 07:15:29;;;;;;;4.20;1.82;;;;;;;12.21;63.50;98977.56;1724012;83;21354;-78
2024/04/03 07:17:58;;;;;;;4.67;2.00;;;;;;;12.26;63.24;98985.91;1700368;83;21545;-79
2024/04/03 07:20:32;;;;;;;5.42;2.02;;;;;;;12.31;62.39;99009.89;1730704;82;21487;-79
2024/04/03 07:23:01;;;;;;;4.40;1.92;;;;;;;12.37;62.17;99021.31;1730465;82;21006;-77
2024/04/03 07:25:30;;;;;;;5.90;1.70;;;;;;;12.44;61.63;99019.27;1730513;82;21034;-77
2024/04/03 07:28:13;;;;;;;5.25;1.77;;;;;;;12.51;61.46;99013.09;1730873;83;21046;-78
2024/04/03 07:30:42;;;;;;;6.20;2.87;;;;;;;12.61;60.97;99017.95;1730713;82;21093;-78
2024/04/03 07:33:11;;;;;;;5.12;2.02;;;;;;;12.69;60.63;99034.05;1730740;83;21002;-78
2024/04/03 07:35:40;;;;;;;6.58;2.40;;;;;;;12.72;59.87;99036.84;1730662;82;21077;-77
2024/04/03 07:38:09;;;;;;;11.12;2.33;;;;;;;12.69;59.93;99034.05;1730653;82;21030;-78
2024/04/03 07:40:37;;;;;;;3.47;1.92;;;;;;;12.72;59.99;99040.42;1730741;82;21030;-76
2024/04/03 07:43:06;;;;;;;3.40;1.70;;;;;;;12.75;59.74;99034.44;1730661;82;21049;-79
2024/04/03 07:45:34;;;;;;;3.30;1.70;;;;;;;12.78;59.18;99046.86;1730584;83;21053;-78
2024/04/03 07:48:04;;;;;;;9.88;2.30;;;;;;;12.76;59.04;99049.02;1730813;83;21069;-78
2024/04/03 07:50:32;;;;;;;3.02;1.95;;;;;;;12.75;59.29;99044.59;1697913;84;21078;-78
2024/04/03 07:53:01;;;;;;;5.92;1.85;;;;;;;12.78;59.52;99046.31;1742735;81;21028;-79
2024/04/03 07:55:30;;;;;;;4.05;1.70;;;;;;;12.88;58.76;99056.13;1734419;81;21031;-77
2024/04/03 07:57:58;;;;;;;3.20;1.67;;;;;;;12.96;58.17;99053.53;1761563;81;21027;-79
2024/04/03 08:00:27;;;;;;;3.67;1.82;;;;;;;13.09;58.20;99035.38;1755346;81;21477;-74
2024/04/03 08:02:55;;;;;;;7.62;1.52;;;;;;;13.38;57.87;99057.38;1757946;81;21585;-75
2024/04/03 08:05:24;;;;;;;4.72;2.02;;;;;;;13.63;57.53;99046.78;1758030;81;21062;-76
2024/04/03 08:07:54;;;;;;;5.17;1.67;;;;;;;13.88;55.93;99062.36;1758014;81;21035;-77
2024/04/03 08:10:23;;;;;;;5.60;2.15;;;;;;;13.98;55.55;99064.97;1757597;81;21026;-77
2024/04/03 08:12:53;;;;;;;10.18;2.42;;;;;;;14.02;54.72;99072.48;1760973;81;21157;-76
2024/04/03 08:15:22;;;;;;;2.58;1.45;;;;;;;14.04;54.46;99071.68;1760594;81;21066;-76
2024/04/03 08:17:50;;;;;;;6.08;2.08;;;;;;;14.01;54.72;99061.72;1760323;81;21204;-76
2024/04/03 08:20:19;;;;;;;7.85;2.37;;;;;;;13.94;54.55;99064.10;1760291;81;21136;-77
2024/04/03 08:22:47;;;;;;;5.33;1.40;;;;;;;13.87;54.64;99077.75;1760689;81;21061;-76
2024/04/03 08:25:16;;;;;;;3.92;1.57;;;;;;;13.81;54.10;99070.50;1760505;81;21042;-76
2024/04/03 08:27:45;;;;;;;8.28;1.80;;;;;;;13.73;53.82;99087.44;1762399;81;20995;-77
2024/04/03 08:30:13;;;;;;;3.40;1.60;;;;;;;13.69;54.10;99084.35;1776494;80;21078;-77
2024/04/03 08:32:44;;;;;;;6.60;1.40;;;;;;;13.70;54.26;99072.80;1779576;80;21080;-76
2024/04/03 08:35:12;;;;;;;2.67;1.52;;;;;;;13.79;54.68;99090.02;1779686;80;21047;-76
2024/04/03 08:37:41;;;;;;;2.67;1.50;;;;;;;14.00;54.27;99088.96;1779507;80;21060;-76
2024/04/03 08:40:14;;;;;;;4.78;1.60;;;;;;;14.25;54.16;99083.28;1778237;80;21094;-76
2024/04/03 08:42:43;;;;;;;2.77;1.47;;;;;;;14.53;53.40;99094.75;1779392;80;21473;-75
2024/04/03 08:45:11;;;;;;;3.25;1.72;;;;;;;14.73;52.37;99081.77;1779756;80;21030;-75
2024/04/03 08:47:40;;;;;;;3.85;1.55;;;;;;;14.84;52.00;99082.73;1779537;80;21034;-76
2024/04/03 08:50:09;;;;;;;5.17;1.60;;;;;;;14.98;51.44;99085.95;1779807;80;21007;-76
2024/04/03 08:52:37;;;;;;;4.35;1.50;;;;;;;15.10;50.45;99073.67;1779239;80;21051;-75
2024/04/03 08:55:07;;;;;;;4.45;1.70;;;;;;;15.18;49.50;99079.27;1729514;80;21462;-75
2024/04/03 08:57:36;;;;;;;3.72;1.50;;;;;;;15.26;49.39;99080.73;1754401;80;21071;-75
2024/04/03 09:00:08;;;;;;;2.83;1.57;;;;;;;15.30;49.34;99081.88;1779469;80;21573;-75
2024/04/03 09:02:37;;;;;;;5.05;1.40;;;;;;;15.33;49.35;99086.33;1770604;80;21034;-74
2024/04/03 09:05:06;;;;;;;4.65;1.32;;;;;;;15.43;48.84;99093.33;1731695;81;21466;-75
2024/04/03 09:07:35;;;;;;;3.20;1.32;;;;;;;15.49;48.21;99083.16;1758637;81;21055;-74
2024/04/03 09:10:04;;;;;;;4.05;1.50;;;;;;;15.54;48.48;99079.91;1758704;81;21082;-73
2024/04/03 09:12:34;;;;;;;5.85;1.60;;;;;;;15.60;47.77;99060.11;1758793;81;21441;-74
2024/04/03 09:15:10;;;;;;;6.00;1.50;;;;;;;15.62;47.66;99090.24;1758705;81;20994;-74
2024/04/03 09:17:38;;;;;;;3.87;1.25;;;;;;;15.67;47.22;99079.25;1759029;81;21054;-74
2024/04/03 09:20:07;;;;;;;2.58;0.98;;;;;;;15.64;46.70;99084.75;1731344;81;21070;-75
2024/04/03 09:22:36;;;;;;;6.92;3.05;;;;;;;15.57;46.04;99079.92;1758656;81;21089;-72
2024/04/03 09:25:05;;;;;;;2.92;1.10;;;;;;;15.44;45.92;99083.12;1758672;81;21074;-75
2024/04/03 09:27:34;;;;;;;3.00;1.10;;;;;;;15.25;46.34;99103.36;1758919;81;21450;-75
2024/04/03 09:30:03;;;;;;;4.20;1.30;;;;;;;15.16;46.82;99085.59;1758655;81;21054;-75
2024/04/03 09:32:33;;;;;;;2.02;1.12;;;;;;;15.16;47.36;99096.09;1743079;81;21558;-75
2024/04/03 09:35:01;;;;;;;3.12;1.00;;;;;;;15.16;46.42;99100.23;1694547;82;21063;-74
2024/04/03 09:37:32;;;;;;;4.25;1.45;;;;;;;15.11;46.27;99089.14;1742159;82;21047;-74
2024/04/03 09:40:00;;;;;;;3.75;0.95;;;;;;;15.04;46.24;99105.05;1742317;82;21114;-75
2024/04/03 09:42:29;;;;;;;2.17;0.82;;;;;;;14.95;46.85;99098.30;1742248;82;21496;-75
2024/04/03 09:44:58;;;;;;;2.15;1.07;;;;;;;14.92;46.98;99096.06;1742094;82;21090;-75
2024/04/03 09:47:33;;;;;;;3.98;1.65;;;;;;;14.90;46.97;99121.14;1742068;82;21039;-76
2024/04/03 09:50:02;;;;;;;3.62;1.07;;;;;;;14.87;46.09;99105.11;1742088;82;21524;-75
2024/04/03 09:52:33;;;;;;;3.67;1.27;;;;;;;14.90;45.60;99103.76;1742101;82;21031;-75
2024/04/03 09:55:02;;;;;;;4.78;1.10;;;;;;;14.93;45.05;99086.69;1718131;82;21118;-76
2024/04/03 09:57:31;;;;;;;5.15;1.32;;;;;;;15.02;45.27;99081.58;1742182;82;21015;-77
2024/04/03 10:00:00;;;;;;;3.25;1.10;;;;;;;15.12;45.36;99100.46;1742168;82;21066;-76
2024/04/03 10:02:29;;;;;;;8.60;1.57;;;;;;;15.18;45.04;99106.31;1743144;82;21003;-75
2024/04/03 10:04:58;;;;;;;4.12;0.90;;;;;;;15.19;45.08;99108.53;1744953;82;21463;-76
2024/04/03 10:07:30;;;;;;;7.45;1.20;;;;;;;15.22;44.04;99117.13;1744830;82;21455;-76
2024/04/03 10:09:58;;;;;;;2.77;1.10;;;;;;;15.21;44.02;99092.00;1744715;82;21071;-76
2024/04/03 10:12:28;;;;;;;7.17;1.30;;;;;;;15.17;44.60;99112.93;1692341;82;21066;-75
2024/04/03 10:14:56;;;;;;;5.05;1.00;;;;;;;15.16;44.42;99094.70;1745127;82;21043;-75
2024/04/03 10:17:26;;;;;;;6.95;1.40;;;;;;;15.19;44.67;99105.23;1744770;82;21072;-75
2024/04/03 10:19:59;;;;;;;3.90;0.98;;;;;;;15.25;44.21;99111.63;1744874;82;21043;-74
2024/04/03 10:22:30;;;;;;;9.90;1.77;;;;;;;15.34;43.96;99125.25;1744874;82;21034;-75
2024/04/03 10:24:58;;;;;;;6.20;0.90;;;;;;;15.43;44.72;99122.30;1744826;82;21147;-75
2024/04/03 10:27:27;;;;;;;4.22;1.07;;;;;;;15.49;43.71;99114.36;1745055;82;21020;-75
2024/04/03 10:30:06;;;;;;;5.65;1.07;;;;;;;15.51;43.57;99129.28;1744898;82;21059;-75
2024/04/03 10:32:32;;;;;;;5.40;0.75;;;;;;;15.50;43.60;99174.00;1771128;81;21063;-75
2024/04/03 10:35:01;;;;;;;4.83;0.90;;;;;;;15.45;42.79;99134.47;1777451;81;21106;-76
2024/04/03 10:37:29;;;;;;;7.15;0.90;;;;;;;15.41;42.96;99131.40;1751494;81;21109;-74
2024/04/03 10:39:58;;;;;;;3.02;0.80;;;;;;;15.38;43.38;99153.16;1777228;81;21075;-74
2024/04/03 10:42:30;;;;;;;4.05;1.00;;;;;;;15.36;43.14;99136.03;1776979;81;21019;-74
2024/04/03 10:44:58;;;;;;;1.60;0.82;;;;;;;15.30;43.00;99133.77;1751591;81;21003;-74
2024/04/03 10:47:28;;;;;;;3.80;1.17;;;;;;;15.28;43.50;99144.77;1777477;81;21023;-74
2024/04/03 10:49:57;;;;;;;1.35;0.85;;;;;;;15.29;43.64;99155.55;1777198;81;21106;-74
2024/04/03 10:52:25;;;;;;;4.62;1.20;;;;;;;15.28;43.36;99151.12;1777003;81;21038;-74
2024/04/03 10:54:54;;;;;;;3.20;0.80;;;;;;;15.29;43.43;99154.17;1777458;81;21042;-73
2024/04/03 10:57:22;;;;;;;3.67;1.07;;;;;;;15.30;43.41;99153.63;1751106;81;21075;-74
2024/04/03 10:59:51;;;;;;;1.60;0.80;;;;;;;15.33;43.42;99155.32;1776968;80;21026;-74
2024/04/03 11:02:19;;;;;;;3.00;0.75;;;;;;;15.38;43.54;99167.80;1772098;81;20982;-74
2024/04/03 11:04:49;;;;;;;3.58;0.72;;;;;;;15.41;43.20;99157.62;1760906;81;21486;-75
2024/04/03 11:07:17;;;;;;;4.08;0.70;;;;;;;15.45;42.89;99164.28;1761197;81;20995;-74
2024/04/03 11:09:46;;;;;;;4.37;0.90;;;;;;;15.48;42.95;99143.61;1761151;81;21038;-74
2024/04/03 11:12:15;;;;;;;2.35;0.93;;;;;;;15.51;42.78;99159.11;1761229;81;20994;-74
2024/04/03 11:14:44;;;;;;;2.05;0.75;;;;;;;15.54;42.82;99154.98;1710046;81;21034;-74
2024/04/03 11:17:12;;;;;;;2.85;0.65;;;;;;;15.58;42.90;99160.86;1760998;81;21057;-74
2024/04/03 11:19:42;;;;;;;5.25;0.80;;;;;;;15.62;42.57;99167.01;1760986;81;21034;-76
2024/04/03 11:22:11;;;;;;;5.22;0.80;;;;;;;15.60;42.64;99164.19;1760922;81;21466;-75
2024/04/03 11:24:39;;;;;;;4.20;0.88;;;;;;;15.57;42.58;99156.39;1761046;81;21030;-74
2024/04/03 11:27:08;;;;;;;3.72;0.90;;;;;;;15.49;42.92;99168.74;1761285;81;21125;-75
2024/04/03 11:29:40;;;;;;;2.77;0.72;;;;;;;15.46;42.78;99170.09;1761013;81;21023;-73
2024/04/03 11:32:08;;;;;;;3.52;0.90;;;;;;;15.42;42.58;99173.09;1758410;81;21498;-74
2024/04/03 11:34:38;;;;;;;4.37;0.60;;;;;;;15.37;42.65;99180.48;1726533;82;21547;-75
2024/04/03 11:37:08;;;;;;;1.45;0.70;;;;;;;15.33;42.60;99169.66;1755654;81;21104;-75
2024/04/03 11:39:37;;;;;;;2.65;0.70;;;;;;;15.28;42.79;99175.12;1755714;81;21502;-76
2024/04/03 11:42:07;;;;;;;4.05;0.62;;;;;;;15.23;42.94;99167.08;1721843;82;21098;-75
2024/04/03 11:44:38;;;;;;;4.92;0.80;;;;;;;15.22;42.97;99175.61;1755527;81;21076;-75